Time;durP1;ratioP1;P1;durP2;ratioP2;P2;SDS_P1;SDS_P2;PMS_P1;PMS_P2;Temp;Humidity;BMP_temperature;BMP_pressure;BME280_temperature;BME280_humidity;BME280_pressure;Samples;Min_cycle;Max_cycle;Signal;HPM_P1;HPM_P2
2023/03/31 00:00:26;;;;;;;18.60;2.50;;;;;;;-146.25;91.36;52299.25;2088002;28;39610;-72
2023/03/31 00:01:28;;;;;;;12.05;1.58;;;;;;;-146.25;91.35;52329.66;2088143;28;35391;-71
2023/03/31 00:02:30;;;;;;;15.90;2.45;;;;;;;-146.25;91.43;52321.56;2088415;28;34663;-70
2023/03/31 00:03:32;;;;;;;12.85;2.00;;;;;;;-146.25;91.46;52333.72;2088373;28;34082;-70
2023/03/31 00:04:34;;;;;;;15.32;2.40;;;;;;;-146.25;91.35;52325.63;2088451;28;34958;-71
2023/03/31 00:05:36;;;;;;;16.83;2.15;;;;;;;-146.25;91.51;52317.50;2088832;28;20041;-70
2023/03/31 00:06:41;;;;;;;15.98;2.10;;;;;;;-146.25;91.54;52317.50;2087804;28;38163;-70
2023/03/31 00:07:44;;;;;;;12.65;1.67;;;;;;;-146.25;91.57;52305.34;2088373;28;32458;-70
2023/03/31 00:08:50;;;;;;;14.00;1.98;;;;;;;-146.25;91.72;52293.19;2088316;28;33918;-70
2023/03/31 00:09:56;;;;;;;13.88;1.75;;;;;;;-146.25;91.68;52362.13;2079952;28;32340;-71
2023/03/31 00:11:11;;;;;;;17.35;1.83;;;;;;;-146.25;91.86;52317.50;2083480;28;20152;-71
2023/03/31 00:12:15;;;;;;;15.68;2.78;;;;;;;-146.25;91.75;52313.44;2079185;28;39426;-72
2023/03/31 00:13:17;;;;;;;11.48;1.77;;;;;;;-146.25;91.81;52343.88;2071608;28;32487;-71
2023/03/31 00:14:20;;;;;;;13.65;2.80;;;;;;;-146.25;91.90;52343.88;2081173;28;20106;-70
2023/03/31 00:15:21;;;;;;;15.40;2.05;;;;;;;-146.25;92.12;52341.84;2088076;28;35701;-69
2023/03/31 00:16:23;;;;;;;14.07;2.03;;;;;;;-146.25;91.87;52335.75;2079915;28;29801;-71
2023/03/31 00:17:25;;;;;;;16.08;2.38;;;;;;;-146.25;92.02;52337.78;2071657;28;32803;-71
2023/03/31 00:18:29;;;;;;;13.60;2.33;;;;;;;-146.25;91.97;52323.59;2079731;28;37727;-71
2023/03/31 00:19:32;;;;;;;13.60;2.10;;;;;;;-146.25;91.77;52309.41;2088883;28;20029;-71
2023/03/31 00:20:36;;;;;;;12.30;2.38;;;;;;;-146.25;91.91;52309.41;2088312;28;38628;-71
2023/03/31 00:21:41;;;;;;;14.82;2.35;;;;;;;-146.25;91.94;52303.31;2088317;28;33066;-71
2023/03/31 00:22:46;;;;;;;15.63;2.28;;;;;;;-146.25;91.87;52331.69;2087895;28;34910;-71
2023/03/31 00:23:48;;;;;;;9.85;1.80;;;;;;;-146.25;91.91;52305.34;2087961;28;37983;-71
2023/03/31 00:24:49;;;;;;;13.23;2.17;;;;;;;-146.25;91.93;52315.47;2087820;28;34145;-71
2023/03/31 00:25:51;;;;;;;14.50;2.22;;;;;;;-146.25;91.93;52331.69;2088072;28;34702;-71
2023/03/31 00:26:55;;;;;;;14.82;1.83;;;;;;;-146.25;91.92;52335.75;2088200;28;34282;-71
2023/03/31 00:27:59;;;;;;;16.30;2.30;;;;;;;-146.25;92.00;52331.69;2079586;28;23727;-71
2023/03/31 00:29:03;;;;;;;17.85;2.75;;;;;;;-146.25;91.95;52343.88;2080487;28;20152;-72
2023/03/31 00:30:07;;;;;;;14.35;2.53;;;;;;;-146.25;92.03;52311.44;2079470;28;30041;-71
2023/03/31 00:31:09;;;;;;;18.45;2.53;;;;;;;-146.25;91.97;52317.50;2071559;28;25989;-71
2023/03/31 00:32:13;;;;;;;17.65;2.50;;;;;;;-146.25;92.17;52327.66;2079594;28;32458;-71
2023/03/31 00:33:15;;;;;;;15.52;2.33;;;;;;;-146.25;91.95;52343.88;2088419;28;20938;-71
2023/03/31 00:34:16;;;;;;;10.90;1.98;;;;;;;-146.25;92.08;52297.22;2079920;28;24913;-70
2023/03/31 00:35:18;;;;;;;14.35;2.45;;;;;;;-146.25;92.28;52303.31;2079953;28;29279;-71
2023/03/31 00:36:29;;;;;;;16.88;2.28;;;;;;;-146.25;92.30;52297.22;2079795;28;29661;-72
2023/03/31 00:37:32;;;;;;;18.75;2.20;;;;;;;-146.25;92.19;52349.94;2073405;28;21713;-71
2023/03/31 00:38:34;;;;;;;15.45;2.20;;;;;;;-146.25;92.35;52341.84;2064876;28;28214;-71
2023/03/31 00:39:37;;;;;;;16.50;2.42;;;;;;;-146.25;92.29;52321.56;2071685;28;30469;-71
2023/03/31 00:40:46;;;;;;;13.32;1.77;;;;;;;-146.25;92.18;52376.31;2087773;28;25894;-72
2023/03/31 00:41:48;;;;;;;13.70;2.28;;;;;;;-146.25;92.42;52313.44;2088323;28;29335;-71
2023/03/31 00:42:50;;;;;;;12.95;1.85;;;;;;;-146.25;92.46;52343.88;2088290;28;30288;-71
2023/03/31 00:44:23;;;;;;;13.30;1.83;;;;;;;-146.25;92.52;52337.78;2088248;28;31448;-70
2023/03/31 00:45:30;;;;;;;12.15;1.70;;;;;;;-146.25;92.45;52272.91;2088350;28;27925;-71
2023/03/31 00:47:01;;;;;;;15.20;2.08;;;;;;;-146.25;92.80;52315.47;2088971;28;20151;-71
2023/03/31 00:48:15;;;;;;;14.35;1.67;;;;;;;-146.25;92.71;52303.31;2080012;28;20792;-71
2023/03/31 00:49:36;;;;;;;15.20;2.20;;;;;;;-146.25;92.95;52339.81;2084465;28;36205;-71
2023/03/31 00:50:58;;;;;;;11.88;1.70;;;;;;;-146.25;92.84;52307.38;2087818;28;34781;-69
2023/03/31 00:52:23;;;;;;;14.32;1.95;;;;;;;-146.25;93.09;52349.94;2079265;28;30788;-71
2023/03/31 00:53:31;;;;;;;13.93;1.85;;;;;;;-146.25;93.15;52317.50;2075547;28;20124;-70
2023/03/31 00:54:33;;;;;;;10.38;1.70;;;;;;;-146.25;93.03;52311.44;2073315;28;32017;-70
2023/03/31 00:55:43;;;;;;;13.85;2.20;;;;;;;-146.25;93.45;52313.44;2081208;28;20336;-70
2023/03/31 00:56:47;;;;;;;8.18;1.35;;;;;;;-146.25;93.37;52276.97;2088512;28;27733;-70
2023/03/31 00:57:52;;;;;;;11.43;1.90;;;;;;;-146.25;93.21;52368.19;2071042;28;31477;-70
2023/03/31 00:58:59;;;;;;;13.43;2.40;;;;;;;-146.25;93.37;52299.25;2056151;28;29016;-70
2023/03/31 01:00:16;;;;;;;11.77;1.92;;;;;;;-146.25;93.46;52327.66;2065722;28;20129;-70
2023/03/31 01:01:23;;;;;;;21.40;2.08;;;;;;;-146.25;93.39;52323.59;2081982;28;20046;-70
2023/03/31 01:02:27;;;;;;;14.60;1.98;;;;;;;-146.25;93.43;52285.06;2080611;28;20031;-70
2023/03/31 01:03:32;;;;;;;13.43;1.75;;;;;;;-146.25;93.55;52319.53;2080491;28;31134;-70
2023/03/31 01:04:40;;;;;;;15.73;2.28;;;;;;;-146.25;93.48;52307.38;2079156;28;35959;-70
2023/03/31 01:05:49;;;;;;;15.60;2.08;;;;;;;-146.25;93.24;52335.75;2064371;28;33287;-70
2023/03/31 01:07:27;;;;;;;14.82;1.80;;;;;;;-146.25;93.49;52335.75;2074441;28;27192;-70
2023/03/31 01:08:29;;;;;;;12.90;1.70;;;;;;;-146.25;93.95;52321.56;2071808;28;28426;-70
2023/03/31 01:09:34;;;;;;;17.17;2.40;;;;;;;-146.25;93.49;52319.53;2079837;28;20084;-69
2023/03/31 01:10:42;;;;;;;14.82;2.10;;;;;;;-146.25;93.50;52327.66;2080438;28;23626;-70
2023/03/31 01:11:46;;;;;;;12.18;2.17;;;;;;;-146.25;93.41;52331.69;2079953;28;20050;-70
2023/03/31 01:12:53;;;;;;;15.82;2.45;;;;;;;-146.25;93.71;52356.03;2070944;28;31039;-70
2023/03/31 01:13:55;;;;;;;14.05;1.90;;;;;;;-146.25;93.65;52327.66;2065364;28;20963;-70
2023/03/31 01:15:02;;;;;;;15.13;2.58;;;;;;;-146.25;93.69;52341.84;2070806;28;41641;-70
2023/03/31 01:16:04;;;;;;;14.05;2.00;;;;;;;-146.25;93.65;52335.75;2079854;28;25848;-70
2023/03/31 01:17:08;;;;;;;11.88;2.13;;;;;;;-146.25;93.58;52287.09;2088523;28;29573;-70
2023/03/31 01:18:13;;;;;;;15.18;1.77;;;;;;;-146.25;93.38;52319.53;2079375;28;29163;-71
2023/03/31 01:19:54;;;;;;;10.77;1.73;;;;;;;-146.25;93.50;52311.44;2063689;28;29767;-70
2023/03/31 01:21:13;;;;;;;;;;;;;;;-146.25;93.44;52295.19;2068224;28;38536;-70
2023/03/31 01:23:24;;;;;;;15.35;1.83;;;;;;;-146.25;93.45;52335.75;2089022;28;20845;-70
2023/03/31 01:25:00;;;;;;;13.02;1.48;;;;;;;-146.25;93.24;52337.78;2071331;28;20210;-70
2023/03/31 01:26:20;;;;;;;21.13;1.85;;;;;;;-146.25;93.23;52347.91;2070843;28;27700;-70
2023/03/31 01:27:36;;;;;;;15.05;1.90;;;;;;;-146.25;93.18;52345.91;2071072;28;26382;-70
2023/03/31 01:28:45;;;;;;;10.20;1.75;;;;;;;-146.25;92.92;52329.66;2071150;28;29550;-68
2023/03/31 01:30:42;;;;;;;16.25;1.92;;;;;;;-146.25;93.28;52313.44;2077388;28;27784;-70
2023/03/31 01:32:08;;;;;;;18.58;1.73;;;;;;;-146.25;93.01;52333.72;2088447;28;20108;-70
2023/03/31 01:33:34;;;;;;;14.52;1.92;;;;;;;-146.25;92.75;52368.19;2087952;28;30319;-70
2023/03/31 01:35:00;;;;;;;13.25;2.00;;;;;;;-146.25;92.90;52301.28;2088928;28;20041;-70
2023/03/31 01:36:34;;;;;;;16.05;2.58;;;;;;;-146.25;92.79;52307.38;2088749;28;30150;-70
2023/03/31 01:38:16;;;;;;;11.68;1.73;;;;;;;-146.25;92.95;52329.66;2088210;28;26464;-70
2023/03/31 01:40:13;;;;;;;15.40;1.98;;;;;;;-146.25;92.91;52325.63;2079719;28;20127;-70
2023/03/31 01:42:15;;;;;;;15.13;1.80;;;;;;;-146.25;93.06;52299.25;2063737;28;23750;-70
2023/03/31 01:43:19;;;;;;;15.13;2.03;;;;;;;-146.25;93.34;52315.47;2071012;28;25321;-70
2023/03/31 01:44:56;;;;;;;13.27;1.80;;;;;;;-146.25;93.15;52323.59;2088066;28;37293;-70
2023/03/31 01:46:05;;;;;;;17.33;1.60;;;;;;;-146.25;93.62;52313.44;2079746;28;20886;-70
2023/03/31 01:47:21;;;;;;;14.48;1.88;;;;;;;-146.25;93.79;52325.63;2084482;28;32640;-70
2023/03/31 01:48:49;;;;;;;16.80;1.90;;;;;;;-146.25;94.03;52313.44;2079457;28;21042;-70
2023/03/31 01:50:03;;;;;;;16.98;2.20;;;;;;;-146.25;93.92;52299.25;2084686;28;20337;-70
2023/03/31 01:51:14;;;;;;;17.27;2.60;;;;;;;-146.25;94.43;52347.91;2070650;28;34802;-69
2023/03/31 01:52:25;;;;;;;;;;;;;;;-146.25;94.84;52339.81;2075551;28;20047;-70
2023/03/31 01:53:40;;;;;;;15.02;2.30;;;;;;;-146.25;95.15;52333.72;2079230;28;26364;-70
2023/03/31 01:55:05;;;;;;;12.23;1.88;;;;;;;-146.25;95.31;52380.38;2081507;28;20046;-69
2023/03/31 01:56:15;;;;;;;12.48;1.70;;;;;;;-146.25;95.46;52335.75;2089774;28;20048;-70
2023/03/31 01:57:34;;;;;;;11.82;2.33;;;;;;;-146.25;95.66;52345.91;2090090;28;20037;-70
2023/03/31 01:58:50;;;;;;;16.88;1.83;;;;;;;-146.25;96.02;52362.13;2080599;28;33127;-71
2023/03/31 02:00:10;;;;;;;15.43;2.00;;;;;;;-146.25;96.22;52349.94;2067583;28;20050;-71
2023/03/31 02:01:36;;;;;;;13.88;2.03;;;;;;;-146.25;96.38;52329.66;2071410;28;20876;-71
2023/03/31 02:03:15;;;;;;;15.93;2.60;;;;;;;-146.25;97.11;52335.75;2080806;28;28291;-71
2023/03/31 02:04:27;;;;;;;10.13;2.10;;;;;;;-146.25;97.31;52325.63;2072862;28;20042;-71
2023/03/31 02:05:51;;;;;;;14.50;2.00;;;;;;;-146.25;97.74;52323.59;2070197;28;20050;-71
2023/03/31 02:07:02;;;;;;;19.20;2.50;;;;;;;-146.25;97.51;52347.91;2075502;28;31182;-71
2023/03/31 02:08:10;;;;;;;16.20;1.98;;;;;;;-146.25;98.00;52339.81;2072671;28;25877;-72
2023/03/31 02:09:18;;;;;;;13.50;3.08;;;;;;;-146.25;98.42;52329.66;2074678;28;32118;-70
2023/03/31 02:10:24;;;;;;;17.27;2.45;;;;;;;-146.25;98.14;52335.75;2064588;28;21069;-70
2023/03/31 02:11:27;;;;;;;14.57;2.63;;;;;;;-146.25;98.24;52331.69;2058242;28;21372;-70
2023/03/31 02:12:34;;;;;;;12.55;2.70;;;;;;;-146.25;98.53;52323.59;2072851;28;21327;-70
2023/03/31 02:13:40;;;;;;;22.20;2.85;;;;;;;-146.25;98.57;52307.38;2064667;28;20055;-70
2023/03/31 02:14:50;;;;;;;13.65;3.58;;;;;;;-146.25;98.84;52333.72;2066732;28;20045;-70
2023/03/31 02:16:00;;;;;;;13.00;2.50;;;;;;;-146.25;98.57;52335.75;2072341;28;24297;-70
2023/03/31 02:17:04;;;;;;;;;;;;;;;-146.25;98.85;52347.91;2075804;28;20542;-70
2023/03/31 02:18:11;;;;;;;18.80;2.80;;;;;;;-146.25;98.74;52327.66;2080526;28;30731;-70
2023/03/31 02:19:17;;;;;;;8.73;2.45;;;;;;;-146.25;98.80;52325.63;2080986;28;20050;-70
2023/03/31 02:20:21;;;;;;;11.30;2.30;;;;;;;-146.25;98.85;52301.28;2071844;28;31658;-70
2023/03/31 02:21:25;;;;;;;13.30;2.70;;;;;;;-146.25;99.01;52335.75;2065222;28;20055;-70
2023/03/31 02:22:32;;;;;;;18.30;3.20;;;;;;;-146.25;98.75;52331.69;2071989;28;34593;-70
2023/03/31 02:23:37;;;;;;;12.05;2.47;;;;;;;-146.25;99.22;52309.41;2072523;28;25677;-70
2023/03/31 02:24:40;;;;;;;12.20;2.90;;;;;;;-146.25;99.13;52313.44;2074451;28;20851;-70
2023/03/31 02:25:52;;;;;;;14.65;3.05;;;;;;;-146.25;99.06;52337.78;2081265;28;24290;-70
2023/03/31 02:27:22;;;;;;;13.02;2.47;;;;;;;-146.25;99.08;52331.69;2064571;28;20039;-70
2023/03/31 02:28:27;;;;;;;14.02;3.20;;;;;;;-146.25;99.26;52356.03;2072212;28;35770;-70
2023/03/31 02:29:29;;;;;;;15.80;3.10;;;;;;;-146.25;99.46;52329.66;2080798;28;26969;-70
2023/03/31 02:30:48;;;;;;;10.95;2.97;;;;;;;-146.25;99.46;52319.53;2064480;28;21006;-70
2023/03/31 02:32:06;;;;;;;13.63;3.08;;;;;;;-146.25;99.54;52329.66;2060802;28;33552;-70
2023/03/31 02:33:09;;;;;;;13.10;2.70;;;;;;;-146.25;99.67;52335.75;2060561;28;20055;-69
2023/03/31 02:34:11;;;;;;;12.43;3.15;;;;;;;-146.25;99.80;52331.69;2058374;28;20056;-70
2023/03/31 02:35:20;;;;;;;12.80;3.03;;;;;;;-146.25;99.52;52347.91;2072746;28;20904;-69
2023/03/31 02:36:24;;;;;;;11.05;2.92;;;;;;;-146.25;99.38;52323.59;2072451;28;26170;-70
2023/03/31 02:37:29;;;;;;;12.60;2.90;;;;;;;-146.25;99.78;52337.78;2065701;28;20040;-70
2023/03/31 02:38:38;;;;;;;13.05;2.90;;;;;;;-146.25;99.50;52337.78;2064691;28;25343;-70
2023/03/31 02:39:43;;;;;;;13.73;3.05;;;;;;;-146.25;99.44;52327.66;2071914;28;34342;-69
2023/03/31 02:40:46;;;;;;;17.00;3.50;;;;;;;-146.25;99.49;52364.13;2064198;28;20141;-70
2023/03/31 02:41:47;;;;;;;13.88;3.35;;;;;;;-146.25;99.61;52343.88;2065318;28;20102;-70
2023/03/31 02:42:49;;;;;;;12.48;3.05;;;;;;;-146.25;99.37;52323.59;2072003;28;29400;-70
2023/03/31 02:43:51;;;;;;;16.05;3.70;;;;;;;-146.25;99.59;52349.94;2071991;28;31112;-70
2023/03/31 02:45:05;;;;;;;14.85;3.10;;;;;;;-146.25;99.75;52321.56;2072453;28;20050;-70
2023/03/31 02:46:08;;;;;;;12.90;2.80;;;;;;;-146.25;99.46;52343.88;2081113;28;20908;-69
2023/03/31 02:47:16;;;;;;;9.95;3.08;;;;;;;-146.25;99.69;52360.09;2080944;28;24323;-69
2023/03/31 02:48:37;;;;;;;14.00;2.75;;;;;;;-146.25;99.74;52323.59;2064606;28;27883;-70
2023/03/31 02:49:47;;;;;;;;;;;;;;;-146.25;99.62;52299.25;2070766;28;21330;-70
2023/03/31 02:51:15;;;;;;;11.63;2.38;;;;;;;-146.25;99.72;52356.03;2080384;28;24515;-70
2023/03/31 02:52:44;;;;;;;16.88;3.08;;;;;;;-146.25;99.82;52343.88;2072500;28;20046;-71
2023/03/31 02:53:46;;;;;;;17.23;3.38;;;;;;;-146.25;99.85;52331.69;2072758;28;20046;-70
2023/03/31 02:55:19;;;;;;;16.63;2.92;;;;;;;-146.25;100.00;52321.56;2072236;28;28840;-69
2023/03/31 02:56:43;;;;;;;16.98;3.33;;;;;;;-146.25;100.00;52327.66;2081365;28;20042;-69
2023/03/31 02:58:33;;;;;;;12.27;3.15;;;;;;;-146.25;99.60;52354.00;2080480;28;26411;-71
2023/03/31 02:59:44;;;;;;;12.50;2.83;;;;;;;-146.25;99.57;52356.03;2077950;28;20046;-72
2023/03/31 03:01:30;;;;;;;12.75;3.13;;;;;;;-146.25;99.70;52351.97;2072615;28;20046;-72
2023/03/31 03:02:50;;;;;;;10.07;2.83;;;;;;;-146.25;99.63;52343.88;2067817;28;20050;-71
2023/03/31 03:04:08;;;;;;;11.73;2.88;;;;;;;-146.25;99.54;52341.84;2080589;28;20160;-72
2023/03/31 03:06:04;;;;;;;13.63;2.60;;;;;;;-146.25;99.37;52287.09;2072357;28;20049;-70
2023/03/31 03:07:46;;;;;;;14.43;2.70;;;;;;;-146.25;99.23;52309.41;2069504;28;20046;-71
2023/03/31 03:09:45;;;;;;;13.05;2.38;;;;;;;-146.25;99.22;52347.91;2072687;28;20038;-71
2023/03/31 03:11:48;;;;;;;14.57;2.22;;;;;;;-146.25;99.15;52315.47;2047964;28;20065;-70
2023/03/31 03:13:11;;;;;;;11.32;2.45;;;;;;;-146.25;99.10;52364.13;2072138;28;20823;-71
2023/03/31 03:14:26;;;;;;;11.27;2.33;;;;;;;-146.25;99.33;52343.88;2075780;28;20060;-71
2023/03/31 03:15:49;;;;;;;11.27;2.30;;;;;;;-146.25;99.42;52339.81;2064151;28;20038;-69
2023/03/31 03:17:05;;;;;;;12.65;2.80;;;;;;;-146.25;99.41;52343.88;2054573;28;38360;-71
2023/03/31 03:18:07;;;;;;;13.48;2.15;;;;;;;-146.25;99.57;52307.38;2065722;28;35991;-70
2023/03/31 03:19:16;;;;;;;12.50;2.47;;;;;;;-146.25;99.55;52372.25;2072998;28;38262;-71
2023/03/31 03:20:20;;;;;;;12.30;2.45;;;;;;;-146.25;99.51;52331.69;2072867;28;20051;-71
2023/03/31 03:21:22;;;;;;;13.68;2.30;;;;;;;-146.25;99.31;52337.78;2065061;28;37575;-70
2023/03/31 03:22:24;;;;;;;13.63;2.60;;;;;;;-146.25;99.47;52333.72;2071831;28;35676;-71
2023/03/31 03:23:25;;;;;;;12.75;2.53;;;;;;;-146.25;99.75;52285.06;2081207;28;20030;-71
2023/03/31 03:24:28;;;;;;;12.05;2.03;;;;;;;-146.25;99.39;52356.03;2080410;28;37280;-71
2023/03/31 03:25:30;;;;;;;9.18;2.22;;;;;;;-146.25;99.40;52360.09;2080603;28;32705;-70
2023/03/31 03:26:34;;;;;;;13.48;1.98;;;;;;;-146.25;99.39;52315.47;2080697;28;20164;-70
2023/03/31 03:27:37;;;;;;;10.48;1.77;;;;;;;-146.25;99.57;52331.69;2080134;28;34808;-69
2023/03/31 03:28:40;;;;;;;10.55;2.00;;;;;;;-146.25;99.55;52347.91;2080162;28;37108;-70
2023/03/31 03:29:42;;;;;;;10.00;2.30;;;;;;;-146.25;99.45;52343.88;2080958;28;23666;-69
2023/03/31 03:30:43;;;;;;;11.27;2.00;;;;;;;-146.25;99.65;52337.78;2071429;28;34432;-70
2023/03/31 03:31:45;;;;;;;14.75;2.38;;;;;;;-146.25;99.45;52349.94;2071867;28;36984;-69
2023/03/31 03:32:47;;;;;;;12.85;2.38;;;;;;;-146.25;99.77;52343.88;2080354;28;37227;-70
2023/03/31 03:33:49;;;;;;;12.88;2.42;;;;;;;-146.25;99.61;52297.22;2080642;28;32743;-70
2023/03/31 03:34:51;;;;;;;13.88;2.42;;;;;;;-146.25;99.67;52315.47;2080101;28;35655;-70
2023/03/31 03:35:53;;;;;;;18.35;2.58;;;;;;;-146.25;100.00;52341.84;2072208;28;20046;-69
2023/03/31 03:36:55;;;;;;;10.90;2.28;;;;;;;-146.25;100.00;52337.78;2071449;28;35493;-70
2023/03/31 03:37:56;;;;;;;8.27;1.77;;;;;;;-146.25;100.00;52297.22;2080502;28;35701;-70
2023/03/31 03:38:58;;;;;;;8.00;1.75;;;;;;;-146.25;99.87;52354.00;2080303;28;34512;-70
2023/03/31 03:40:00;;;;;;;13.35;2.17;;;;;;;-146.25;100.00;52358.06;2080974;28;20902;-70
2023/03/31 03:41:02;;;;;;;17.23;2.33;;;;;;;-146.25;100.00;52311.44;2071700;28;32938;-70
2023/03/31 03:42:04;;;;;;;9.82;1.98;;;;;;;-146.25;100.00;52345.91;2071835;28;38792;-70
2023/03/31 03:43:06;;;;;;;13.43;1.95;;;;;;;-146.25;100.00;52341.84;2080584;28;27909;-70
2023/03/31 03:44:08;;;;;;;12.23;1.90;;;;;;;-146.25;100.00;52343.88;2080508;28;36217;-70
2023/03/31 03:45:10;;;;;;;11.93;2.30;;;;;;;-146.25;100.00;52303.31;2080156;28;37099;-70
2023/03/31 03:46:11;;;;;;;13.38;1.98;;;;;;;-146.25;100.00;52343.88;2081048;28;20045;-70
2023/03/31 03:47:14;;;;;;;10.57;1.90;;;;;;;-146.25;100.00;52374.28;2080578;28;31706;-70
2023/03/31 03:48:18;;;;;;;10.48;1.85;;;;;;;-146.25;100.00;52360.09;2071090;28;36021;-70
2023/03/31 03:49:20;;;;;;;10.77;1.70;;;;;;;-146.25;100.00;52335.75;2072152;28;35655;-70
2023/03/31 03:50:22;;;;;;;10.23;1.85;;;;;;;-146.25;100.00;52319.53;2080285;28;39115;-70
2023/03/31 03:51:23;;;;;;;8.52;1.77;;;;;;;-146.25;100.00;52360.09;2080211;28;33556;-70
2023/03/31 03:52:26;;;;;;;9.95;1.60;;;;;;;-146.25;100.00;52307.38;2079883;28;33402;-70
2023/03/31 03:53:30;;;;;;;13.20;2.00;;;;;;;-146.25;100.00;52335.75;2080354;28;35191;-70
2023/03/31 03:54:32;;;;;;;8.45;1.73;;;;;;;-146.25;100.00;52301.28;2080036;28;20644;-70
2023/03/31 03:55:33;;;;;;;10.77;2.05;;;;;;;-146.25;100.00;52374.28;2079653;28;36639;-70
2023/03/31 03:56:37;;;;;;;12.32;2.28;;;;;;;-146.25;100.00;52327.66;2080154;28;33506;-70
2023/03/31 03:57:39;;;;;;;11.73;2.03;;;;;;;-146.25;100.00;52356.03;2079821;28;35693;-70
2023/03/31 03:58:41;;;;;;;9.23;1.83;;;;;;;-146.25;100.00;52345.91;2080392;28;33828;-70
2023/03/31 03:59:43;;;;;;;10.95;2.13;;;;;;;-146.25;100.00;52347.91;2080958;28;20042;-70
2023/03/31 04:00:45;;;;;;;7.72;1.70;;;;;;;-146.25;100.00;52295.19;2071202;28;36323;-70
2023/03/31 04:01:47;;;;;;;10.05;1.77;;;;;;;-146.25;100.00;52386.44;2071585;28;37770;-69
2023/03/31 04:02:48;;;;;;;11.20;2.03;;;;;;;-146.25;100.00;52321.56;2080161;28;33538;-71
2023/03/31 04:03:50;;;;;;;13.25;1.63;;;;;;;-146.25;100.00;52347.91;2080241;28;38370;-70
2023/03/31 04:04:52;;;;;;;12.00;1.67;;;;;;;-146.25;100.00;52315.47;2080421;28;34677;-70
2023/03/31 04:05:56;;;;;;;11.70;2.25;;;;;;;-146.25;100.00;52341.84;2080222;28;36343;-69
2023/03/31 04:07:02;;;;;;;10.88;2.00;;;;;;;-146.25;100.00;52319.53;2081008;28;20034;-70
2023/03/31 04:08:05;;;;;;;9.40;1.77;;;;;;;-146.25;100.00;52351.97;2080337;28;30183;-71
2023/03/31 04:09:07;;;;;;;10.00;1.58;;;;;;;-146.25;100.00;52341.84;2080272;28;34262;-69
2023/03/31 04:10:09;;;;;;;14.45;1.88;;;;;;;-146.25;100.00;52325.63;2080713;28;20481;-70
2023/03/31 04:11:21;;;;;;;10.30;1.63;;;;;;;-146.25;100.00;52341.84;2080103;28;33735;-69
2023/03/31 04:12:23;;;;;;;11.45;1.70;;;;;;;-146.25;100.00;52327.66;2080062;28;38053;-70
2023/03/31 04:13:25;;;;;;;12.82;1.88;;;;;;;-146.25;100.00;52337.78;2071371;28;33571;-71
2023/03/31 04:14:29;;;;;;;12.52;1.90;;;;;;;-146.25;100.00;52368.19;2064131;28;34047;-70
2023/03/31 04:15:31;;;;;;;12.25;1.80;;;;;;;-146.25;100.00;52327.66;2072169;28;36153;-70
2023/03/31 04:16:33;;;;;;;9.95;1.42;;;;;;;-146.25;100.00;52347.91;2080022;28;32963;-71
2023/03/31 04:17:36;;;;;;;10.85;1.90;;;;;;;-146.25;100.00;52323.59;2079877;28;35315;-71
2023/03/31 04:18:41;;;;;;;8.95;1.67;;;;;;;-146.25;100.00;52311.44;2079590;28;35073;-71
2023/03/31 04:19:49;;;;;;;11.55;1.83;;;;;;;-146.25;100.00;52351.97;2080861;28;20030;-71
2023/03/31 04:21:04;;;;;;;16.08;2.13;;;;;;;-146.25;100.00;52311.44;2080539;28;20971;-72
2023/03/31 04:22:10;;;;;;;12.40;1.73;;;;;;;-146.25;100.00;52323.59;2080391;28;33684;-70
2023/03/31 04:23:13;;;;;;;10.40;1.88;;;;;;;-146.25;100.00;52337.78;2079804;28;20957;-72
2023/03/31 04:24:20;;;;;;;11.30;1.90;;;;;;;-146.25;100.00;52327.66;2079338;28;32026;-72
2023/03/31 04:25:22;;;;;;;11.85;1.83;;;;;;;-146.25;100.00;52360.09;2080340;28;35757;-70
2023/03/31 04:26:37;;;;;;;10.50;1.58;;;;;;;-146.25;100.00;52370.22;2080117;28;35858;-70
2023/03/31 04:27:53;;;;;;;14.55;1.95;;;;;;;-146.25;100.00;52384.41;2081006;28;28105;-70
2023/03/31 04:28:59;;;;;;;9.38;1.58;;;;;;;-146.25;100.00;52347.91;2080157;28;28522;-70
2023/03/31 04:30:03;;;;;;;11.90;2.00;;;;;;;-146.25;100.00;52339.81;2080441;28;20084;-72
2023/03/31 04:31:05;;;;;;;8.68;1.75;;;;;;;-146.25;100.00;52323.59;2062946;28;35378;-71
2023/03/31 04:32:13;;;;;;;9.20;2.03;;;;;;;-146.25;100.00;52321.56;2063971;28;31158;-71
2023/03/31 04:33:16;;;;;;;11.10;1.75;;;;;;;-146.25;100.00;52356.03;2079415;28;35335;-72
2023/03/31 04:34:18;;;;;;;13.18;1.77;;;;;;;-146.25;100.00;52372.25;2071219;28;36978;-71
2023/03/31 04:35:26;;;;;;;9.77;1.83;;;;;;;-146.25;100.00;52364.13;2070936;28;38074;-72
2023/03/31 04:36:30;;;;;;;10.48;1.83;;;;;;;-146.25;100.00;52339.81;2080301;28;32788;-69
2023/03/31 04:37:33;;;;;;;14.15;2.00;;;;;;;-146.25;100.00;52335.75;2079872;28;38846;-72
2023/03/31 04:38:35;;;;;;;12.45;2.10;;;;;;;-146.25;100.00;52368.19;2080180;28;36366;-71
2023/03/31 04:39:36;;;;;;;10.55;1.67;;;;;;;-146.25;100.00;52343.88;2079714;28;36847;-71
2023/03/31 04:40:40;;;;;;;10.63;1.77;;;;;;;-146.25;100.00;52339.81;2080143;28;34187;-71
2023/03/31 04:41:42;;;;;;;12.68;2.10;;;;;;;-146.25;100.00;52351.97;2079919;28;33106;-72
2023/03/31 04:42:44;;;;;;;11.23;2.42;;;;;;;-146.25;100.00;52366.16;2071120;28;31274;-71
2023/03/31 04:43:48;;;;;;;8.40;1.90;;;;;;;-146.25;100.00;52327.66;2071195;28;34809;-69
2023/03/31 04:44:49;;;;;;;10.10;1.95;;;;;;;-146.25;100.00;52358.06;2079854;28;36617;-71
2023/03/31 04:45:51;;;;;;;11.35;2.05;;;;;;;-146.25;100.00;52349.94;2079812;28;37285;-71
2023/03/31 04:46:53;;;;;;;9.60;1.58;;;;;;;-146.25;100.00;52313.44;2080032;28;33249;-70
2023/03/31 04:47:55;;;;;;;10.43;1.88;;;;;;;-146.25;100.00;52396.59;2079570;28;36944;-69
2023/03/31 04:48:58;;;;;;;11.68;1.67;;;;;;;-146.25;100.00;52382.38;2071399;28;36223;-72
2023/03/31 04:49:59;;;;;;;9.07;2.00;;;;;;;-146.25;100.00;52345.91;2071621;28;36845;-72
2023/03/31 04:51:02;;;;;;;12.55;2.28;;;;;;;-146.25;100.00;52351.97;2080178;28;24935;-70
2023/03/31 04:52:06;;;;;;;9.93;1.75;;;;;;;-146.25;100.00;52339.81;2079783;28;38146;-70
2023/03/31 04:53:08;;;;;;;9.20;1.63;;;;;;;-146.25;100.00;52325.63;2079812;28;33084;-70
2023/03/31 04:54:09;;;;;;;11.75;2.38;;;;;;;-146.25;100.00;52368.19;2079808;28;34896;-70
2023/03/31 04:55:11;;;;;;;10.50;2.00;;;;;;;-146.25;100.00;52319.53;2079475;28;34255;-70
2023/03/31 04:56:15;;;;;;;10.75;2.00;;;;;;;-146.25;100.00;52362.13;2080420;28;20034;-71
2023/03/31 04:57:17;;;;;;;9.45;2.03;;;;;;;-146.25;100.00;52317.50;2079784;28;37922;-71
2023/03/31 04:58:19;;;;;;;11.30;2.13;;;;;;;-146.25;100.00;52339.81;2079780;28;33621;-71
2023/03/31 04:59:24;;;;;;;10.05;1.80;;;;;;;-146.25;100.00;52354.00;2080410;28;20038;-72
2023/03/31 05:00:25;;;;;;;10.00;2.00;;;;;;;-146.25;100.00;52372.25;2079064;28;35176;-71
2023/03/31 05:01:31;;;;;;;8.38;1.60;;;;;;;-146.25;100.00;52370.22;2079980;28;32468;-71
2023/03/31 05:02:33;;;;;;;9.73;2.33;;;;;;;-146.25;100.00;52347.91;2079953;28;33995;-71
2023/03/31 05:03:35;;;;;;;7.13;1.30;;;;;;;-146.25;100.00;52339.81;2070988;28;34209;-71
2023/03/31 05:04:37;;;;;;;10.25;1.90;;;;;;;-146.25;100.00;52400.63;2063445;28;30929;-71
2023/03/31 05:05:39;;;;;;;10.02;2.10;;;;;;;-146.25;100.00;52339.81;2071084;28;34991;-71
2023/03/31 05:06:41;;;;;;;11.13;1.88;;;;;;;-146.25;100.00;52331.69;2079415;28;35392;-72
2023/03/31 05:07:43;;;;;;;9.73;1.60;;;;;;;-146.25;100.00;52360.09;2080006;28;35683;-72
2023/03/31 05:08:44;;;;;;;10.73;1.58;;;;;;;-146.25;100.00;52351.97;2079525;28;34926;-72
2023/03/31 05:09:46;;;;;;;8.52;2.20;;;;;;;-146.25;100.00;52370.22;2079449;28;35964;-71
2023/03/31 05:10:48;;;;;;;7.32;1.70;;;;;;;-146.25;100.00;52339.81;2079906;28;31353;-71
2023/03/31 05:11:50;;;;;;;9.65;1.92;;;;;;;-146.25;100.00;52376.31;2080156;28;34574;-71
2023/03/31 05:12:52;;;;;;;8.82;1.50;;;;;;;-146.25;100.00;52360.09;2079291;28;35107;-72
2023/03/31 05:13:54;;;;;;;8.25;1.60;;;;;;;-146.25;100.00;52351.97;2079156;28;33102;-72
2023/03/31 05:14:55;;;;;;;8.27;1.80;;;;;;;-146.25;100.00;52343.88;2079590;28;35449;-72